Cherryville, Missouri
Current Conditions -  °F | °C
As of 12:53 AM on Sunday 21 Dec 2014 (Local Time) from KVIH Reporting Station
Overcast Overcast  
Wind Chill:   Ceiling: 2100
Heat Index:   Visibility: 10mi
Dew Point:   Wind: 6mph
Humidity: 79%   Direction: 170°S
Pressure: 30.17"   Gusts: NA
Location:  37.85°N, 91.28°W
Report Text: KVIH 210653Z AUTO 17005KT 10SM OVC021 04/01 A3017 RMK AO2 SLP223 T00390006
Loading
Personal Weather Stations






























Interactive Weather Map New forecast layout! Learn more

10-Day Weather Forecast

Advertisements
Track Severe Weather on mobile